sensor_id;sensor_type;location;lat;lon;timestamp;pressure;altitude;pressure_sealevel;temperature;humidity
19236;BME280;9752;54.270;12.470;2022-12-18T00:01:32;103172.88;;;-8.79;100.00
19236;BME280;9752;54.270;12.470;2022-12-18T00:06:35;103171.97;;;-8.80;100.00
19236;BME280;9752;54.270;12.470;2022-12-18T00:11:37;103173.78;;;-8.79;100.00
19236;BME280;9752;54.270;12.470;2022-12-18T00:16:39;103168.00;;;-8.74;100.00
19236;BME280;9752;54.270;12.470;2022-12-18T00:21:43;103178.69;;;-8.75;100.00
19236;BME280;9752;54.270;12.470;2022-12-18T00:26:45;103172.06;;;-8.84;100.00
19236;BME280;9752;54.270;12.470;2022-12-18T00:31:46;103181.06;;;-8.90;100.00
19236;BME280;9752;54.270;12.470;2022-12-18T00:36:49;103187.34;;;-9.21;100.00
19236;BME280;9752;54.270;12.470;2022-12-18T00:41:51;103188.50;;;-9.29;100.00
19236;BME280;9752;54.270;12.470;2022-12-18T00:47:10;103181.69;;;-9.01;100.00
19236;BME280;9752;54.270;12.470;2022-12-18T00:52:13;103186.50;;;-8.83;100.00
19236;BME280;9752;54.270;12.470;2022-12-18T00:57:15;103188.75;;;-8.85;100.00
19236;BME280;9752;54.270;12.470;2022-12-18T01:02:17;103194.47;;;-8.76;100.00
19236;BME280;9752;54.270;12.470;2022-12-18T01:07:20;103194.59;;;-8.80;100.00
19236;BME280;9752;54.270;12.470;2022-12-18T01:12:22;103201.06;;;-8.76;100.00
19236;BME280;9752;54.270;12.470;2022-12-18T01:17:24;103205.84;;;-8.78;100.00
19236;BME280;9752;54.270;12.470;2022-12-18T01:22:28;103200.16;;;-8.67;100.00
19236;BME280;9752;54.270;12.470;2022-12-18T01:27:30;103209.00;;;-8.79;100.00
19236;BME280;9752;54.270;12.470;2022-12-18T01:32:33;103224.34;;;-8.87;100.00
19236;BME280;9752;54.270;12.470;2022-12-18T01:37:37;103218.91;;;-8.94;100.00
19236;BME280;9752;54.270;12.470;2022-12-18T01:42:39;103214.94;;;-8.88;100.00
19236;BME280;9752;54.270;12.470;2022-12-18T01:47:43;103216.13;;;-8.86;100.00
19236;BME280;9752;54.270;12.470;2022-12-18T01:52:50;103220.94;;;-8.78;100.00
19236;BME280;9752;54.270;12.470;2022-12-18T01:57:55;103215.47;;;-8.95;100.00
19236;BME280;9752;54.270;12.470;2022-12-18T02:02:58;103225.44;;;-9.14;100.00
19236;BME280;9752;54.270;12.470;2022-12-18T02:08:07;103224.72;;;-9.33;100.00
19236;BME280;9752;54.270;12.470;2022-12-18T02:13:14;103222.25;;;-9.23;100.00
19236;BME280;9752;54.270;12.470;2022-12-18T02:18:23;103208.94;;;-9.08;100.00
19236;BME280;9752;54.270;12.470;2022-12-18T02:23:44;103206.44;;;-8.98;100.00
19236;BME280;9752;54.270;12.470;2022-12-18T02:28:52;103208.72;;;-8.90;100.00
19236;BME280;9752;54.270;12.470;2022-12-18T02:34:00;103205.28;;;-8.81;100.00
19236;BME280;9752;54.270;12.470;2022-12-18T02:39:10;103205.03;;;-8.73;100.00
19236;BME280;9752;54.270;12.470;2022-12-18T02:44:20;103205.44;;;-8.66;100.00
19236;BME280;9752;54.270;12.470;2022-12-18T02:49:28;103218.03;;;-8.66;100.00
19236;BME280;9752;54.270;12.470;2022-12-18T02:54:46;103220.19;;;-8.53;100.00
19236;BME280;9752;54.270;12.470;2022-12-18T02:59:58;103219.63;;;-8.56;100.00
19236;BME280;9752;54.270;12.470;2022-12-18T03:05:08;103212.50;;;-8.59;100.00
19236;BME280;9752;54.270;12.470;2022-12-18T03:10:14;103212.50;;;-8.69;100.00
19236;BME280;9752;54.270;12.470;2022-12-18T03:15:22;103251.34;;;-8.86;100.00
19236;BME280;9752;54.270;12.470;2022-12-18T03:20:34;103274.69;;;-9.34;100.00
19236;BME280;9752;54.270;12.470;2022-12-18T03:25:39;103262.38;;;-9.43;100.00
19236;BME280;9752;54.270;12.470;2022-12-18T03:30:44;103252.09;;;-9.34;100.00
19236;BME280;9752;54.270;12.470;2022-12-18T03:35:47;103268.13;;;-9.24;100.00
19236;BME280;9752;54.270;12.470;2022-12-18T03:40:58;103262.72;;;-9.45;100.00
19236;BME280;9752;54.270;12.470;2022-12-18T03:46:07;103279.63;;;-9.54;100.00
19236;BME280;9752;54.270;12.470;2022-12-18T03:51:17;103278.06;;;-9.67;100.00
19236;BME280;9752;54.270;12.470;2022-12-18T03:56:26;103292.63;;;-9.84;100.00
19236;BME280;9752;54.270;12.470;2022-12-18T04:01:32;103288.19;;;-10.09;100.00
19236;BME280;9752;54.270;12.470;2022-12-18T04:06:36;103290.81;;;-10.13;100.00
19236;BME280;9752;54.270;12.470;2022-12-18T04:11:39;103306.38;;;-9.82;100.00
19236;BME280;9752;54.270;12.470;2022-12-18T04:16:43;103304.41;;;-9.79;100.00
19236;BME280;9752;54.270;12.470;2022-12-18T04:21:48;103318.09;;;-9.87;100.00
19236;BME280;9752;54.270;12.470;2022-12-18T04:26:50;103310.03;;;-9.90;100.00
19236;BME280;9752;54.270;12.470;2022-12-18T04:31:58;103305.75;;;-9.95;100.00
19236;BME280;9752;54.270;12.470;2022-12-18T04:37:02;103306.69;;;-10.08;100.00
19236;BME280;9752;54.270;12.470;2022-12-18T04:42:05;103304.44;;;-10.21;100.00
19236;BME280;9752;54.270;12.470;2022-12-18T04:47:09;103287.75;;;-10.57;100.00
19236;BME280;9752;54.270;12.470;2022-12-18T04:52:11;103285.75;;;-10.27;100.00
19236;BME280;9752;54.270;12.470;2022-12-18T04:57:12;103275.88;;;-9.93;100.00
19236;BME280;9752;54.270;12.470;2022-12-18T05:02:15;103272.03;;;-9.77;100.00
19236;BME280;9752;54.270;12.470;2022-12-18T05:07:17;103274.72;;;-9.72;100.00
19236;BME280;9752;54.270;12.470;2022-12-18T05:12:19;103276.66;;;-9.61;100.00
19236;BME280;9752;54.270;12.470;2022-12-18T05:17:22;103300.63;;;-9.53;100.00
19236;BME280;9752;54.270;12.470;2022-12-18T05:22:24;103300.69;;;-9.44;100.00
19236;BME280;9752;54.270;12.470;2022-12-18T05:27:26;103308.50;;;-9.42;100.00
19236;BME280;9752;54.270;12.470;2022-12-18T05:32:29;103311.59;;;-9.53;100.00
19236;BME280;9752;54.270;12.470;2022-12-18T05:37:30;103310.78;;;-9.57;100.00
19236;BME280;9752;54.270;12.470;2022-12-18T05:42:32;103309.66;;;-9.50;100.00
19236;BME280;9752;54.270;12.470;2022-12-18T05:47:35;103313.84;;;-9.54;100.00
19236;BME280;9752;54.270;12.470;2022-12-18T05:52:37;103326.38;;;-9.40;100.00
19236;BME280;9752;54.270;12.470;2022-12-18T05:57:39;103331.75;;;-9.29;100.00
19236;BME280;9752;54.270;12.470;2022-12-18T06:02:42;103316.09;;;-9.32;100.00
19236;BME280;9752;54.270;12.470;2022-12-18T06:07:43;103290.50;;;-9.26;100.00
19236;BME280;9752;54.270;12.470;2022-12-18T06:12:45;103306.72;;;-9.10;100.00
19236;BME280;9752;54.270;12.470;2022-12-18T06:17:48;103322.22;;;-9.26;100.00
19236;BME280;9752;54.270;12.470;2022-12-18T06:22:50;103343.41;;;-9.44;100.00
19236;BME280;9752;54.270;12.470;2022-12-18T06:27:51;103332.66;;;-9.66;100.00
19236;BME280;9752;54.270;12.470;2022-12-18T06:32:54;103318.91;;;-9.68;100.00
19236;BME280;9752;54.270;12.470;2022-12-18T06:37:57;103310.69;;;-9.53;100.00
19236;BME280;9752;54.270;12.470;2022-12-18T06:42:59;103322.78;;;-9.60;100.00
19236;BME280;9752;54.270;12.470;2022-12-18T06:48:02;103334.88;;;-9.54;100.00
19236;BME280;9752;54.270;12.470;2022-12-18T06:53:04;103338.78;;;-9.46;100.00
19236;BME280;9752;54.270;12.470;2022-12-18T06:58:05;103330.38;;;-9.37;100.00
19236;BME280;9752;54.270;12.470;2022-12-18T07:03:08;103331.78;;;-9.19;100.00
19236;BME280;9752;54.270;12.470;2022-12-18T07:08:10;103342.03;;;-9.28;100.00
19236;BME280;9752;54.270;12.470;2022-12-18T07:13:12;103339.63;;;-9.32;100.00
19236;BME280;9752;54.270;12.470;2022-12-18T07:18:15;103332.03;;;-9.42;100.00
19236;BME280;9752;54.270;12.470;2022-12-18T07:23:17;103346.66;;;-9.49;100.00
19236;BME280;9752;54.270;12.470;2022-12-18T07:28:18;103341.53;;;-9.45;100.00
19236;BME280;9752;54.270;12.470;2022-12-18T07:33:22;103345.53;;;-9.41;100.00
19236;BME280;9752;54.270;12.470;2022-12-18T07:38:23;103358.59;;;-9.24;100.00
19236;BME280;9752;54.270;12.470;2022-12-18T07:43:25;103369.28;;;-9.35;100.00
19236;BME280;9752;54.270;12.470;2022-12-18T07:48:29;103368.53;;;-9.44;100.00
19236;BME280;9752;54.270;12.470;2022-12-18T07:53:31;103381.38;;;-9.42;100.00
19236;BME280;9752;54.270;12.470;2022-12-18T07:58:34;103387.88;;;-9.38;100.00
19236;BME280;9752;54.270;12.470;2022-12-18T08:03:37;103379.22;;;-9.45;100.00
19236;BME280;9752;54.270;12.470;2022-12-18T08:08:39;103397.75;;;-9.44;100.00
19236;BME280;9752;54.270;12.470;2022-12-18T08:13:42;103398.47;;;-9.35;100.00
19236;BME280;9752;54.270;12.470;2022-12-18T08:18:45;103395.94;;;-9.21;100.00
19236;BME280;9752;54.270;12.470;2022-12-18T08:23:47;103382.47;;;-8.98;100.00
19236;BME280;9752;54.270;12.470;2022-12-18T08:28:50;103383.47;;;-8.78;100.00
19236;BME280;9752;54.270;12.470;2022-12-18T08:33:54;103394.69;;;-8.62;100.00
19236;BME280;9752;54.270;12.470;2022-12-18T08:38:56;103393.25;;;-8.56;100.00
19236;BME280;9752;54.270;12.470;2022-12-18T08:43:58;103407.72;;;-8.55;100.00
19236;BME280;9752;54.270;12.470;2022-12-18T08:49:18;103416.81;;;-8.56;100.00
19236;BME280;9752;54.270;12.470;2022-12-18T08:54:20;103409.31;;;-8.46;100.00
19236;BME280;9752;54.270;12.470;2022-12-18T08:59:22;103409.59;;;-8.35;100.00
19236;BME280;9752;54.270;12.470;2022-12-18T09:04:25;103419.84;;;-8.19;100.00
19236;BME280;9752;54.270;12.470;2022-12-18T09:09:27;103433.41;;;-8.09;100.00
19236;BME280;9752;54.270;12.470;2022-12-18T09:14:29;103436.38;;;-7.92;100.00
19236;BME280;9752;54.270;12.470;2022-12-18T09:19:32;103429.88;;;-7.76;100.00
19236;BME280;9752;54.270;12.470;2022-12-18T09:24:34;103429.25;;;-7.66;100.00
19236;BME280;9752;54.270;12.470;2022-12-18T09:29:35;103435.47;;;-7.54;100.00
19236;BME280;9752;54.270;12.470;2022-12-18T09:34:38;103435.63;;;-7.38;100.00
19236;BME280;9752;54.270;12.470;2022-12-18T09:39:40;103426.19;;;-7.20;100.00
19236;BME280;9752;54.270;12.470;2022-12-18T09:44:45;103431.75;;;-6.97;100.00
19236;BME280;9752;54.270;12.470;2022-12-18T09:49:54;103426.81;;;-6.82;100.00
19236;BME280;9752;54.270;12.470;2022-12-18T09:55:03;103425.72;;;-6.69;100.00
19236;BME280;9752;54.270;12.470;2022-12-18T10:00:15;103429.91;;;-6.54;100.00
19236;BME280;9752;54.270;12.470;2022-12-18T10:05:27;103425.28;;;-6.56;100.00
19236;BME280;9752;54.270;12.470;2022-12-18T10:10:38;103417.13;;;-6.50;100.00
19236;BME280;9752;54.270;12.470;2022-12-18T10:15:51;103406.44;;;-6.33;100.00
19236;BME280;9752;54.270;12.470;2022-12-18T10:21:00;103402.53;;;-6.21;100.00
19236;BME280;9752;54.270;12.470;2022-12-18T10:26:06;103408.06;;;-6.09;100.00
19236;BME280;9752;54.270;12.470;2022-12-18T10:31:14;103405.19;;;-6.00;100.00
19236;BME280;9752;54.270;12.470;2022-12-18T10:36:18;103399.72;;;-5.98;100.00
19236;BME280;9752;54.270;12.470;2022-12-18T10:41:25;103400.41;;;-5.83;100.00
19236;BME280;9752;54.270;12.470;2022-12-18T10:46:27;103399.69;;;-5.73;100.00
19236;BME280;9752;54.270;12.470;2022-12-18T10:51:32;103398.72;;;-5.73;100.00
19236;BME280;9752;54.270;12.470;2022-12-18T10:56:35;103391.84;;;-5.74;100.00
19236;BME280;9752;54.270;12.470;2022-12-18T11:01:49;103389.06;;;-5.60;100.00
19236;BME280;9752;54.270;12.470;2022-12-18T11:06:55;103389.91;;;-5.35;100.00
19236;BME280;9752;54.270;12.470;2022-12-18T11:11:59;103383.97;;;-5.14;100.00
19236;BME280;9752;54.270;12.470;2022-12-18T11:17:01;103386.44;;;-5.04;100.00
19236;BME280;9752;54.270;12.470;2022-12-18T11:22:19;103392.97;;;-4.95;100.00
19236;BME280;9752;54.270;12.470;2022-12-18T11:27:21;103386.75;;;-4.76;100.00
19236;BME280;9752;54.270;12.470;2022-12-18T11:32:31;103382.03;;;-4.69;100.00
19236;BME280;9752;54.270;12.470;2022-12-18T11:37:36;103380.06;;;-4.60;100.00
19236;BME280;9752;54.270;12.470;2022-12-18T11:42:42;103395.38;;;-4.70;100.00
19236;BME280;9752;54.270;12.470;2022-12-18T11:47:51;103394.97;;;-4.83;100.00
19236;BME280;9752;54.270;12.470;2022-12-18T11:52:56;103404.00;;;-4.79;100.00
19236;BME280;9752;54.270;12.470;2022-12-18T11:58:03;103419.84;;;-4.80;100.00
19236;BME280;9752;54.270;12.470;2022-12-18T12:03:24;103404.59;;;-4.86;100.00
19236;BME280;9752;54.270;12.470;2022-12-18T12:08:38;103402.03;;;-4.71;100.00
19236;BME280;9752;54.270;12.470;2022-12-18T12:14:00;103405.94;;;-4.52;100.00
19236;BME280;9752;54.270;12.470;2022-12-18T12:19:20;103388.56;;;-4.39;100.00
19236;BME280;9752;54.270;12.470;2022-12-18T12:24:38;103399.75;;;-4.48;100.00
19236;BME280;9752;54.270;12.470;2022-12-18T12:29:53;103394.56;;;-4.59;100.00
19236;BME280;9752;54.270;12.470;2022-12-18T12:35:07;103397.97;;;-4.64;100.00
19236;BME280;9752;54.270;12.470;2022-12-18T12:40:20;103388.38;;;-4.56;100.00
19236;BME280;9752;54.270;12.470;2022-12-18T12:45:29;103382.53;;;-4.45;100.00
19236;BME280;9752;54.270;12.470;2022-12-18T12:50:34;103358.53;;;-4.26;100.00
19236;BME280;9752;54.270;12.470;2022-12-18T12:55:39;103360.69;;;-4.18;100.00
19236;BME280;9752;54.270;12.470;2022-12-18T13:00:48;103353.28;;;-4.22;100.00
19236;BME280;9752;54.270;12.470;2022-12-18T13:05:56;103347.81;;;-4.61;100.00
19236;BME280;9752;54.270;12.470;2022-12-18T13:11:02;103367.00;;;-4.94;100.00
19236;BME280;9752;54.270;12.470;2022-12-18T13:16:22;103366.03;;;-5.16;100.00
19236;BME280;9752;54.270;12.470;2022-12-18T13:21:27;103355.44;;;-5.34;100.00
19236;BME280;9752;54.270;12.470;2022-12-18T13:26:34;103367.38;;;-5.33;100.00
19236;BME280;9752;54.270;12.470;2022-12-18T13:31:58;103354.66;;;-5.54;100.00
19236;BME280;9752;54.270;12.470;2022-12-18T13:42:40;103304.63;;;-5.82;100.00
19236;BME280;9752;54.270;12.470;2022-12-18T13:47:59;103300.13;;;-5.89;100.00
19236;BME280;9752;54.270;12.470;2022-12-18T13:53:03;103309.59;;;-5.88;100.00
19236;BME280;9752;54.270;12.470;2022-12-18T13:58:11;103301.91;;;-5.93;100.00
19236;BME280;9752;54.270;12.470;2022-12-18T14:03:19;103295.13;;;-6.04;100.00
19236;BME280;9752;54.270;12.470;2022-12-18T14:08:21;103299.81;;;-6.11;100.00
19236;BME280;9752;54.270;12.470;2022-12-18T14:13:28;103285.34;;;-6.28;100.00
19236;BME280;9752;54.270;12.470;2022-12-18T14:18:38;103280.09;;;-6.39;100.00
19236;BME280;9752;54.270;12.470;2022-12-18T14:23:41;103291.00;;;-6.44;100.00
19236;BME280;9752;54.270;12.470;2022-12-18T14:28:44;103291.72;;;-6.55;100.00
19236;BME280;9752;54.270;12.470;2022-12-18T14:33:46;103291.94;;;-6.69;100.00
19236;BME280;9752;54.270;12.470;2022-12-18T14:38:49;103298.28;;;-6.86;100.00
19236;BME280;9752;54.270;12.470;2022-12-18T14:43:54;103302.97;;;-7.03;100.00
19236;BME280;9752;54.270;12.470;2022-12-18T14:48:56;103298.34;;;-7.15;100.00
19236;BME280;9752;54.270;12.470;2022-12-18T14:54:00;103301.06;;;-7.29;100.00
19236;BME280;9752;54.270;12.470;2022-12-18T14:59:04;103296.97;;;-7.38;100.00
19236;BME280;9752;54.270;12.470;2022-12-18T15:04:26;103292.63;;;-7.49;100.00
19236;BME280;9752;54.270;12.470;2022-12-18T15:09:29;103299.94;;;-7.60;100.00
19236;BME280;9752;54.270;12.470;2022-12-18T15:14:34;103318.34;;;-7.56;100.00
19236;BME280;9752;54.270;12.470;2022-12-18T15:19:39;103333.19;;;-7.48;100.00
19236;BME280;9752;54.270;12.470;2022-12-18T15:24:42;103349.91;;;-7.38;100.00
19236;BME280;9752;54.270;12.470;2022-12-18T15:29:59;103354.31;;;-7.37;100.00
19236;BME280;9752;54.270;12.470;2022-12-18T15:35:13;103345.28;;;-7.51;100.00
19236;BME280;9752;54.270;12.470;2022-12-18T15:40:17;103339.44;;;-7.55;100.00
19236;BME280;9752;54.270;12.470;2022-12-18T15:45:20;103330.31;;;-7.55;100.00
19236;BME280;9752;54.270;12.470;2022-12-18T15:50:22;103325.28;;;-7.55;100.00
19236;BME280;9752;54.270;12.470;2022-12-18T15:55:24;103321.16;;;-7.54;100.00
19236;BME280;9752;54.270;12.470;2022-12-18T16:00:50;103314.78;;;-7.52;100.00
19236;BME280;9752;54.270;12.470;2022-12-18T16:05:51;103320.75;;;-7.61;100.00
19236;BME280;9752;54.270;12.470;2022-12-18T16:10:53;103322.88;;;-7.69;100.00
19236;BME280;9752;54.270;12.470;2022-12-18T16:15:57;103308.31;;;-7.85;100.00
19236;BME280;9752;54.270;12.470;2022-12-18T16:20:59;103314.28;;;-7.85;100.00
19236;BME280;9752;54.270;12.470;2022-12-18T16:26:00;103319.31;;;-7.94;100.00
19236;BME280;9752;54.270;12.470;2022-12-18T16:31:04;103326.69;;;-8.19;100.00
19236;BME280;9752;54.270;12.470;2022-12-18T16:36:06;103331.84;;;-8.43;100.00
19236;BME280;9752;54.270;12.470;2022-12-18T16:41:17;103327.06;;;-8.51;100.00
19236;BME280;9752;54.270;12.470;2022-12-18T16:46:37;103320.41;;;-8.60;100.00
19236;BME280;9752;54.270;12.470;2022-12-18T16:51:39;103316.72;;;-8.53;100.00
19236;BME280;9752;54.270;12.470;2022-12-18T16:56:41;103318.97;;;-8.54;100.00
19236;BME280;9752;54.270;12.470;2022-12-18T17:01:44;103329.19;;;-8.49;100.00
19236;BME280;9752;54.270;12.470;2022-12-18T17:06:46;103327.34;;;-8.50;100.00
19236;BME280;9752;54.270;12.470;2022-12-18T17:11:51;103322.47;;;-8.44;100.00
19236;BME280;9752;54.270;12.470;2022-12-18T17:16:55;103314.34;;;-8.37;100.00
19236;BME280;9752;54.270;12.470;2022-12-18T17:21:57;103292.88;;;-8.35;100.00
19236;BME280;9752;54.270;12.470;2022-12-18T17:26:58;103296.31;;;-8.35;100.00
19236;BME280;9752;54.270;12.470;2022-12-18T17:32:01;103286.38;;;-8.39;100.00
19236;BME280;9752;54.270;12.470;2022-12-18T17:37:03;103291.41;;;-8.39;100.00
19236;BME280;9752;54.270;12.470;2022-12-18T17:42:05;103281.13;;;-8.31;100.00
19236;BME280;9752;54.270;12.470;2022-12-18T17:47:10;103274.50;;;-8.11;100.00
19236;BME280;9752;54.270;12.470;2022-12-18T17:52:12;103276.72;;;-8.02;100.00
19236;BME280;9752;54.270;12.470;2022-12-18T17:57:14;103262.94;;;-8.05;100.00
19236;BME280;9752;54.270;12.470;2022-12-18T18:02:17;103258.19;;;-7.93;100.00
19236;BME280;9752;54.270;12.470;2022-12-18T18:07:19;103243.59;;;-7.90;100.00
19236;BME280;9752;54.270;12.470;2022-12-18T18:12:21;103228.09;;;-7.88;100.00
19236;BME280;9752;54.270;12.470;2022-12-18T18:17:41;103226.63;;;-7.81;100.00
19236;BME280;9752;54.270;12.470;2022-12-18T18:22:43;103220.16;;;-7.85;100.00
19236;BME280;9752;54.270;12.470;2022-12-18T18:27:45;103217.34;;;-7.87;100.00
19236;BME280;9752;54.270;12.470;2022-12-18T18:32:48;103219.59;;;-7.78;100.00
19236;BME280;9752;54.270;12.470;2022-12-18T18:37:50;103223.16;;;-7.72;100.00
19236;BME280;9752;54.270;12.470;2022-12-18T18:42:51;103223.84;;;-7.73;100.00
19236;BME280;9752;54.270;12.470;2022-12-18T18:47:54;103220.63;;;-7.72;100.00
19236;BME280;9752;54.270;12.470;2022-12-18T18:52:58;103208.72;;;-7.73;100.00
19236;BME280;9752;54.270;12.470;2022-12-18T18:57:59;103196.50;;;-7.66;100.00
19236;BME280;9752;54.270;12.470;2022-12-18T19:03:03;103194.63;;;-7.67;100.00
19236;BME280;9752;54.270;12.470;2022-12-18T19:08:05;103204.72;;;-7.67;100.00
19236;BME280;9752;54.270;12.470;2022-12-18T19:13:08;103209.44;;;-7.59;100.00
19236;BME280;9752;54.270;12.470;2022-12-18T19:18:27;103209.56;;;-7.53;100.00
19236;BME280;9752;54.270;12.470;2022-12-18T19:23:29;103199.50;;;-7.53;100.00
19236;BME280;9752;54.270;12.470;2022-12-18T19:28:32;103193.91;;;-7.47;100.00
19236;BME280;9752;54.270;12.470;2022-12-18T19:33:40;103184.22;;;-7.39;100.00
19236;BME280;9752;54.270;12.470;2022-12-18T19:38:43;103169.31;;;-7.28;100.00
19236;BME280;9752;54.270;12.470;2022-12-18T19:43:45;103174.03;;;-7.20;100.00
19236;BME280;9752;54.270;12.470;2022-12-18T19:48:48;103173.28;;;-7.24;100.00
19236;BME280;9752;54.270;12.470;2022-12-18T19:53:51;103161.25;;;-7.41;100.00
19236;BME280;9752;54.270;12.470;2022-12-18T19:58:53;103164.75;;;-7.50;100.00
19236;BME280;9752;54.270;12.470;2022-12-18T20:03:57;103166.88;;;-7.57;100.00
19236;BME280;9752;54.270;12.470;2022-12-18T20:09:02;103169.97;;;-7.64;100.00
19236;BME280;9752;54.270;12.470;2022-12-18T20:14:04;103168.22;;;-7.59;100.00
19236;BME280;9752;54.270;12.470;2022-12-18T20:19:09;103171.53;;;-7.65;100.00
19236;BME280;9752;54.270;12.470;2022-12-18T20:24:11;103185.81;;;-7.50;100.00
19236;BME280;9752;54.270;12.470;2022-12-18T20:29:13;103166.31;;;-7.41;100.00
19236;BME280;9752;54.270;12.470;2022-12-18T20:34:16;103159.34;;;-7.32;100.00
19236;BME280;9752;54.270;12.470;2022-12-18T20:39:18;103147.25;;;-7.29;100.00
19236;BME280;9752;54.270;12.470;2022-12-18T20:44:19;103138.19;;;-7.23;100.00
19236;BME280;9752;54.270;12.470;2022-12-18T20:49:24;103138.19;;;-7.23;100.00
19236;BME280;9752;54.270;12.470;2022-12-18T20:54:26;103137.81;;;-7.20;100.00
19236;BME280;9752;54.270;12.470;2022-12-18T20:59:28;103117.38;;;-7.22;100.00
19236;BME280;9752;54.270;12.470;2022-12-18T21:04:31;103121.25;;;-7.24;100.00
19236;BME280;9752;54.270;12.470;2022-12-18T21:09:33;103103.59;;;-7.24;100.00
19236;BME280;9752;54.270;12.470;2022-12-18T21:14:35;103096.41;;;-7.27;100.00
19236;BME280;9752;54.270;12.470;2022-12-18T21:19:39;103096.13;;;-7.18;100.00
19236;BME280;9752;54.270;12.470;2022-12-18T21:24:40;103080.81;;;-7.14;100.00
19236;BME280;9752;54.270;12.470;2022-12-18T21:29:42;103072.94;;;-7.06;100.00
19236;BME280;9752;54.270;12.470;2022-12-18T21:34:45;103067.06;;;-7.01;100.00
19236;BME280;9752;54.270;12.470;2022-12-18T21:39:47;103066.97;;;-6.91;100.00
19236;BME280;9752;54.270;12.470;2022-12-18T21:44:49;103060.28;;;-6.81;100.00
19236;BME280;9752;54.270;12.470;2022-12-18T21:49:52;103047.50;;;-6.77;100.00
19236;BME280;9752;54.270;12.470;2022-12-18T21:54:54;103030.31;;;-6.74;100.00
19236;BME280;9752;54.270;12.470;2022-12-18T21:59:56;103016.19;;;-6.68;100.00
19236;BME280;9752;54.270;12.470;2022-12-18T22:04:59;103009.34;;;-6.63;100.00
19236;BME280;9752;54.270;12.470;2022-12-18T22:10:00;103000.19;;;-6.62;100.00
19236;BME280;9752;54.270;12.470;2022-12-18T22:15:03;102988.00;;;-6.65;100.00
19236;BME280;9752;54.270;12.470;2022-12-18T22:20:08;102972.69;;;-6.61;100.00
19236;BME280;9752;54.270;12.470;2022-12-18T22:25:10;102966.28;;;-6.59;100.00
19236;BME280;9752;54.270;12.470;2022-12-18T22:30:13;102967.19;;;-6.58;100.00
19236;BME280;9752;54.270;12.470;2022-12-18T22:35:16;102957.09;;;-6.58;100.00
19236;BME280;9752;54.270;12.470;2022-12-18T22:40:19;102954.81;;;-6.57;100.00
19236;BME280;9752;54.270;12.470;2022-12-18T22:45:22;102947.25;;;-6.57;100.00
19236;BME280;9752;54.270;12.470;2022-12-18T22:50:26;102933.53;;;-6.53;100.00
19236;BME280;9752;54.270;12.470;2022-12-18T22:55:28;102919.09;;;-6.54;100.00
19236;BME280;9752;54.270;12.470;2022-12-18T23:00:30;102902.31;;;-6.54;100.00
19236;BME280;9752;54.270;12.470;2022-12-18T23:05:33;102892.94;;;-6.49;100.00
19236;BME280;9752;54.270;12.470;2022-12-18T23:10:36;102883.56;;;-6.50;100.00
19236;BME280;9752;54.270;12.470;2022-12-18T23:15:40;102878.75;;;-6.49;100.00
19236;BME280;9752;54.270;12.470;2022-12-18T23:20:43;102851.72;;;-6.44;100.00
19236;BME280;9752;54.270;12.470;2022-12-18T23:25:44;102833.13;;;-6.44;100.00
19236;BME280;9752;54.270;12.470;2022-12-18T23:30:46;102821.91;;;-6.41;100.00
19236;BME280;9752;54.270;12.470;2022-12-18T23:35:49;102822.38;;;-6.38;100.00
19236;BME280;9752;54.270;12.470;2022-12-18T23:40:51;102801.94;;;-6.39;100.00
19236;BME280;9752;54.270;12.470;2022-12-18T23:45:53;102797.13;;;-6.38;100.00
19236;BME280;9752;54.270;12.470;2022-12-18T23:50:56;102788.44;;;-6.34;100.00
19236;BME280;9752;54.270;12.470;2022-12-18T23:55:58;102783.00;;;-6.26;100.00
